sensor_id;sensor_type;location;lat;lon;timestamp;P1;durP1;ratioP1;P2;durP2;ratioP2
55913;SDS011;58179;48.776;9.124;2023-11-21T00:00:22;5.60;;;3.15;;
55913;SDS011;58179;48.776;9.124;2023-11-21T00:02:50;9.07;;;3.28;;
55913;SDS011;58179;48.776;9.124;2023-11-21T00:05:16;9.17;;;3.87;;
55913;SDS011;58179;48.776;9.124;2023-11-21T00:07:43;8.68;;;3.50;;
55913;SDS011;58179;48.776;9.124;2023-11-21T00:10:10;10.68;;;3.80;;
55913;SDS011;58179;48.776;9.124;2023-11-21T00:12:39;6.90;;;3.65;;
55913;SDS011;58179;48.776;9.124;2023-11-21T00:15:07;8.88;;;3.63;;
55913;SDS011;58179;48.776;9.124;2023-11-21T00:17:35;10.63;;;3.85;;
55913;SDS011;58179;48.776;9.124;2023-11-21T00:20:04;31.90;;;6.97;;
55913;SDS011;58179;48.776;9.124;2023-11-21T00:22:31;14.65;;;5.10;;
55913;SDS011;58179;48.776;9.124;2023-11-21T00:24:58;24.27;;;6.32;;
55913;SDS011;58179;48.776;9.124;2023-11-21T00:27:24;15.98;;;4.85;;
55913;SDS011;58179;48.776;9.124;2023-11-21T00:29:50;9.87;;;4.40;;
55913;SDS011;58179;48.776;9.124;2023-11-21T00:32:17;16.25;;;5.32;;
55913;SDS011;58179;48.776;9.124;2023-11-21T00:34:43;18.67;;;5.93;;
55913;SDS011;58179;48.776;9.124;2023-11-21T00:37:10;27.17;;;6.53;;
55913;SDS011;58179;48.776;9.124;2023-11-21T00:39:36;22.20;;;5.88;;
55913;SDS011;58179;48.776;9.124;2023-11-21T00:42:03;21.47;;;6.37;;
55913;SDS011;58179;48.776;9.124;2023-11-21T00:44:29;23.27;;;6.85;;
55913;SDS011;58179;48.776;9.124;2023-11-21T00:46:56;33.55;;;7.63;;
55913;SDS011;58179;48.776;9.124;2023-11-21T00:49:22;30.58;;;7.28;;
55913;SDS011;58179;48.776;9.124;2023-11-21T00:51:48;17.73;;;6.30;;
55913;SDS011;58179;48.776;9.124;2023-11-21T00:54:15;27.48;;;6.75;;
55913;SDS011;58179;48.776;9.124;2023-11-21T00:56:42;15.55;;;5.47;;
55913;SDS011;58179;48.776;9.124;2023-11-21T00:59:08;13.25;;;5.63;;
55913;SDS011;58179;48.776;9.124;2023-11-21T01:01:35;7.87;;;4.60;;
55913;SDS011;58179;48.776;9.124;2023-11-21T01:04:02;11.63;;;4.78;;
55913;SDS011;58179;48.776;9.124;2023-11-21T01:06:29;13.88;;;4.68;;
55913;SDS011;58179;48.776;9.124;2023-11-21T01:08:56;8.32;;;3.70;;
55913;SDS011;58179;48.776;9.124;2023-11-21T01:11:23;9.35;;;4.20;;
55913;SDS011;58179;48.776;9.124;2023-11-21T01:13:49;9.93;;;4.00;;
55913;SDS011;58179;48.776;9.124;2023-11-21T01:16:16;16.45;;;5.22;;
55913;SDS011;58179;48.776;9.124;2023-11-21T01:18:42;7.20;;;4.00;;
55913;SDS011;58179;48.776;9.124;2023-11-21T01:21:08;10.40;;;4.00;;
55913;SDS011;58179;48.776;9.124;2023-11-21T01:23:34;9.30;;;3.63;;
55913;SDS011;58179;48.776;9.124;2023-11-21T01:26:01;5.82;;;3.30;;
55913;SDS011;58179;48.776;9.124;2023-11-21T01:28:29;11.80;;;3.75;;
55913;SDS011;58179;48.776;9.124;2023-11-21T01:30:55;8.52;;;2.92;;
55913;SDS011;58179;48.776;9.124;2023-11-21T01:33:22;6.65;;;3.13;;
55913;SDS011;58179;48.776;9.124;2023-11-21T01:35:50;5.97;;;2.70;;
55913;SDS011;58179;48.776;9.124;2023-11-21T01:38:19;6.82;;;2.70;;
55913;SDS011;58179;48.776;9.124;2023-11-21T01:40:46;10.50;;;3.28;;
55913;SDS011;58179;48.776;9.124;2023-11-21T01:43:12;6.57;;;2.92;;
55913;SDS011;58179;48.776;9.124;2023-11-21T01:45:39;5.03;;;2.50;;
55913;SDS011;58179;48.776;9.124;2023-11-21T01:48:05;10.27;;;3.60;;
55913;SDS011;58179;48.776;9.124;2023-11-21T01:50:32;6.38;;;2.88;;
55913;SDS011;58179;48.776;9.124;2023-11-21T01:52:58;4.72;;;3.17;;
55913;SDS011;58179;48.776;9.124;2023-11-21T01:55:26;8.27;;;2.65;;
55913;SDS011;58179;48.776;9.124;2023-11-21T01:57:53;8.07;;;2.90;;
55913;SDS011;58179;48.776;9.124;2023-11-21T02:00:21;4.90;;;2.58;;
55913;SDS011;58179;48.776;9.124;2023-11-21T02:02:50;4.40;;;2.42;;
55913;SDS011;58179;48.776;9.124;2023-11-21T02:05:16;4.05;;;2.50;;
55913;SDS011;58179;48.776;9.124;2023-11-21T02:07:43;5.80;;;2.60;;
55913;SDS011;58179;48.776;9.124;2023-11-21T02:10:10;11.50;;;3.40;;
55913;SDS011;58179;48.776;9.124;2023-11-21T02:12:44;14.45;;;4.25;;
55913;SDS011;58179;48.776;9.124;2023-11-21T02:15:10;17.10;;;4.63;;
55913;SDS011;58179;48.776;9.124;2023-11-21T02:17:49;16.83;;;4.28;;
55913;SDS011;58179;48.776;9.124;2023-11-21T02:20:16;17.98;;;4.05;;
55913;SDS011;58179;48.776;9.124;2023-11-21T02:22:43;9.57;;;3.47;;
55913;SDS011;58179;48.776;9.124;2023-11-21T02:25:14;11.18;;;4.00;;
55913;SDS011;58179;48.776;9.124;2023-11-21T02:27:40;10.00;;;3.45;;
55913;SDS011;58179;48.776;9.124;2023-11-21T02:30:08;7.38;;;2.95;;
55913;SDS011;58179;48.776;9.124;2023-11-21T02:32:38;5.68;;;3.10;;
55913;SDS011;58179;48.776;9.124;2023-11-21T02:35:05;5.25;;;2.60;;
55913;SDS011;58179;48.776;9.124;2023-11-21T02:37:33;4.80;;;2.53;;
55913;SDS011;58179;48.776;9.124;2023-11-21T02:40:01;3.38;;;2.60;;
55913;SDS011;58179;48.776;9.124;2023-11-21T02:42:31;9.13;;;2.93;;
55913;SDS011;58179;48.776;9.124;2023-11-21T02:44:57;6.78;;;2.58;;
55913;SDS011;58179;48.776;9.124;2023-11-21T02:47:23;5.03;;;2.72;;
55913;SDS011;58179;48.776;9.124;2023-11-21T02:49:50;4.95;;;2.47;;
55913;SDS011;58179;48.776;9.124;2023-11-21T02:52:17;5.82;;;2.60;;
55913;SDS011;58179;48.776;9.124;2023-11-21T02:54:45;4.25;;;2.38;;
55913;SDS011;58179;48.776;9.124;2023-11-21T02:57:13;3.20;;;2.30;;
55913;SDS011;58179;48.776;9.124;2023-11-21T02:59:39;4.38;;;2.28;;
55913;SDS011;58179;48.776;9.124;2023-11-21T03:02:05;7.63;;;3.00;;
55913;SDS011;58179;48.776;9.124;2023-11-21T03:04:33;5.10;;;2.75;;
55913;SDS011;58179;48.776;9.124;2023-11-21T03:07:00;4.40;;;2.67;;
55913;SDS011;58179;48.776;9.124;2023-11-21T03:09:26;4.30;;;2.50;;
55913;SDS011;58179;48.776;9.124;2023-11-21T03:11:52;4.10;;;2.35;;
55913;SDS011;58179;48.776;9.124;2023-11-21T03:14:20;3.47;;;2.58;;
55913;SDS011;58179;48.776;9.124;2023-11-21T03:16:47;3.47;;;2.28;;
55913;SDS011;58179;48.776;9.124;2023-11-21T03:19:14;6.03;;;2.57;;
55913;SDS011;58179;48.776;9.124;2023-11-21T03:21:40;5.03;;;2.80;;
55913;SDS011;58179;48.776;9.124;2023-11-21T03:24:06;8.03;;;3.33;;
55913;SDS011;58179;48.776;9.124;2023-11-21T03:26:33;5.95;;;2.65;;
55913;SDS011;58179;48.776;9.124;2023-11-21T03:28:59;7.65;;;3.22;;
55913;SDS011;58179;48.776;9.124;2023-11-21T03:31:26;5.35;;;2.90;;
55913;SDS011;58179;48.776;9.124;2023-11-21T03:33:52;3.88;;;2.60;;
55913;SDS011;58179;48.776;9.124;2023-11-21T03:36:19;9.05;;;3.03;;
55913;SDS011;58179;48.776;9.124;2023-11-21T03:38:45;5.68;;;2.88;;
55913;SDS011;58179;48.776;9.124;2023-11-21T03:41:13;4.50;;;2.60;;
55913;SDS011;58179;48.776;9.124;2023-11-21T03:43:39;7.75;;;3.20;;
55913;SDS011;58179;48.776;9.124;2023-11-21T03:46:06;5.10;;;2.50;;
55913;SDS011;58179;48.776;9.124;2023-11-21T03:48:33;3.28;;;2.45;;
55913;SDS011;58179;48.776;9.124;2023-11-21T03:51:00;5.60;;;2.58;;
55913;SDS011;58179;48.776;9.124;2023-11-21T03:53:26;5.03;;;2.30;;
55913;SDS011;58179;48.776;9.124;2023-11-21T03:55:53;5.65;;;2.40;;
55913;SDS011;58179;48.776;9.124;2023-11-21T03:58:19;6.03;;;2.20;;
55913;SDS011;58179;48.776;9.124;2023-11-21T04:00:45;5.93;;;2.88;;
55913;SDS011;58179;48.776;9.124;2023-11-21T04:03:14;7.03;;;2.70;;
55913;SDS011;58179;48.776;9.124;2023-11-21T04:05:41;10.00;;;3.33;;
55913;SDS011;58179;48.776;9.124;2023-11-21T04:08:08;8.20;;;2.70;;
55913;SDS011;58179;48.776;9.124;2023-11-21T04:10:34;5.20;;;2.40;;
55913;SDS011;58179;48.776;9.124;2023-11-21T04:13:00;16.33;;;3.22;;
55913;SDS011;58179;48.776;9.124;2023-11-21T04:15:26;8.13;;;3.00;;
55913;SDS011;58179;48.776;9.124;2023-11-21T04:17:53;7.83;;;3.30;;
55913;SDS011;58179;48.776;9.124;2023-11-21T04:20:19;5.85;;;2.50;;
55913;SDS011;58179;48.776;9.124;2023-11-21T04:22:46;5.22;;;2.58;;
55913;SDS011;58179;48.776;9.124;2023-11-21T04:25:13;6.90;;;2.60;;
55913;SDS011;58179;48.776;9.124;2023-11-21T04:27:40;7.63;;;2.97;;
55913;SDS011;58179;48.776;9.124;2023-11-21T04:30:09;8.80;;;3.00;;
55913;SDS011;58179;48.776;9.124;2023-11-21T04:32:35;6.82;;;2.55;;
55913;SDS011;58179;48.776;9.124;2023-11-21T04:35:02;5.75;;;3.05;;
55913;SDS011;58179;48.776;9.124;2023-11-21T04:37:29;20.90;;;3.67;;
55913;SDS011;58179;48.776;9.124;2023-11-21T04:39:56;10.23;;;3.10;;
55913;SDS011;58179;48.776;9.124;2023-11-21T04:42:22;5.85;;;2.78;;
55913;SDS011;58179;48.776;9.124;2023-11-21T04:44:48;5.07;;;2.80;;
55913;SDS011;58179;48.776;9.124;2023-11-21T04:47:15;4.33;;;2.50;;
55913;SDS011;58179;48.776;9.124;2023-11-21T04:49:41;9.27;;;3.03;;
55913;SDS011;58179;48.776;9.124;2023-11-21T04:52:08;5.82;;;2.70;;
55913;SDS011;58179;48.776;9.124;2023-11-21T04:54:35;4.93;;;2.58;;
55913;SDS011;58179;48.776;9.124;2023-11-21T04:57:02;5.30;;;3.00;;
55913;SDS011;58179;48.776;9.124;2023-11-21T04:59:30;4.20;;;2.67;;
55913;SDS011;58179;48.776;9.124;2023-11-21T05:01:56;6.22;;;2.88;;
55913;SDS011;58179;48.776;9.124;2023-11-21T05:04:22;5.28;;;2.60;;
55913;SDS011;58179;48.776;9.124;2023-11-21T05:06:48;10.48;;;3.28;;
55913;SDS011;58179;48.776;9.124;2023-11-21T05:09:14;8.07;;;3.13;;
55913;SDS011;58179;48.776;9.124;2023-11-21T05:11:41;3.60;;;2.40;;
55913;SDS011;58179;48.776;9.124;2023-11-21T05:14:08;2.88;;;2.50;;
55913;SDS011;58179;48.776;9.124;2023-11-21T05:16:35;2.87;;;2.20;;
55913;SDS011;58179;48.776;9.124;2023-11-21T05:19:01;2.50;;;2.28;;
55913;SDS011;58179;48.776;9.124;2023-11-21T05:21:29;2.28;;;2.00;;
55913;SDS011;58179;48.776;9.124;2023-11-21T05:23:58;2.50;;;1.90;;
55913;SDS011;58179;48.776;9.124;2023-11-21T05:26:24;2.28;;;1.90;;
55913;SDS011;58179;48.776;9.124;2023-11-21T05:28:51;2.03;;;1.80;;
55913;SDS011;58179;48.776;9.124;2023-11-21T05:31:18;2.65;;;1.80;;
55913;SDS011;58179;48.776;9.124;2023-11-21T05:33:44;2.55;;;1.83;;
55913;SDS011;58179;48.776;9.124;2023-11-21T05:36:10;2.28;;;1.77;;
55913;SDS011;58179;48.776;9.124;2023-11-21T05:38:37;4.80;;;2.00;;
55913;SDS011;58179;48.776;9.124;2023-11-21T05:41:03;2.30;;;1.80;;
55913;SDS011;58179;48.776;9.124;2023-11-21T05:43:29;1.80;;;1.70;;
55913;SDS011;58179;48.776;9.124;2023-11-21T05:45:57;2.92;;;1.63;;
55913;SDS011;58179;48.776;9.124;2023-11-21T05:48:24;1.83;;;1.73;;
55913;SDS011;58179;48.776;9.124;2023-11-21T05:50:51;2.72;;;2.00;;
55913;SDS011;58179;48.776;9.124;2023-11-21T05:53:18;3.00;;;1.80;;
55913;SDS011;58179;48.776;9.124;2023-11-21T05:55:44;2.95;;;2.13;;
55913;SDS011;58179;48.776;9.124;2023-11-21T05:58:10;2.33;;;1.85;;
55913;SDS011;58179;48.776;9.124;2023-11-21T06:00:36;3.13;;;1.70;;
55913;SDS011;58179;48.776;9.124;2023-11-21T06:03:03;1.80;;;1.70;;
55913;SDS011;58179;48.776;9.124;2023-11-21T06:05:32;2.40;;;1.80;;
55913;SDS011;58179;48.776;9.124;2023-11-21T06:07:58;2.22;;;1.90;;
55913;SDS011;58179;48.776;9.124;2023-11-21T06:10:25;1.70;;;1.60;;
55913;SDS011;58179;48.776;9.124;2023-11-21T06:12:53;1.92;;;1.75;;
55913;SDS011;58179;48.776;9.124;2023-11-21T06:15:19;1.63;;;1.52;;
55913;SDS011;58179;48.776;9.124;2023-11-21T06:17:47;3.00;;;1.80;;
55913;SDS011;58179;48.776;9.124;2023-11-21T06:20:17;2.22;;;1.70;;
55913;SDS011;58179;48.776;9.124;2023-11-21T06:22:46;1.92;;;1.73;;
55913;SDS011;58179;48.776;9.124;2023-11-21T06:25:13;2.17;;;1.70;;
55913;SDS011;58179;48.776;9.124;2023-11-21T06:27:41;1.90;;;1.70;;
55913;SDS011;58179;48.776;9.124;2023-11-21T06:30:08;3.90;;;2.47;;
55913;SDS011;58179;48.776;9.124;2023-11-21T06:32:36;3.17;;;1.80;;
55913;SDS011;58179;48.776;9.124;2023-11-21T06:35:03;2.90;;;2.13;;
55913;SDS011;58179;48.776;9.124;2023-11-21T06:37:31;2.65;;;2.10;;
55913;SDS011;58179;48.776;9.124;2023-11-21T06:39:59;2.77;;;2.20;;
55913;SDS011;58179;48.776;9.124;2023-11-21T06:42:26;2.47;;;2.17;;
55913;SDS011;58179;48.776;9.124;2023-11-21T06:44:54;3.97;;;2.40;;
55913;SDS011;58179;48.776;9.124;2023-11-21T06:47:23;4.43;;;2.30;;
55913;SDS011;58179;48.776;9.124;2023-11-21T06:49:50;8.57;;;3.10;;
55913;SDS011;58179;48.776;9.124;2023-11-21T06:52:16;10.20;;;4.10;;
55913;SDS011;58179;48.776;9.124;2023-11-21T06:54:43;7.38;;;3.97;;
55913;SDS011;58179;48.776;9.124;2023-11-21T06:57:11;9.50;;;4.53;;
55913;SDS011;58179;48.776;9.124;2023-11-21T06:59:37;8.63;;;4.10;;
55913;SDS011;58179;48.776;9.124;2023-11-21T07:02:03;7.03;;;3.88;;
55913;SDS011;58179;48.776;9.124;2023-11-21T07:04:31;6.38;;;3.67;;
55913;SDS011;58179;48.776;9.124;2023-11-21T07:06:57;5.95;;;3.65;;
55913;SDS011;58179;48.776;9.124;2023-11-21T07:09:24;6.57;;;3.50;;
55913;SDS011;58179;48.776;9.124;2023-11-21T07:11:50;5.80;;;3.35;;
55913;SDS011;58179;48.776;9.124;2023-11-21T07:14:18;6.13;;;3.20;;
55913;SDS011;58179;48.776;9.124;2023-11-21T07:16:44;7.47;;;3.80;;
55913;SDS011;58179;48.776;9.124;2023-11-21T07:19:11;7.78;;;3.65;;
55913;SDS011;58179;48.776;9.124;2023-11-21T07:21:37;7.85;;;4.30;;
55913;SDS011;58179;48.776;9.124;2023-11-21T07:24:04;11.13;;;5.00;;
55913;SDS011;58179;48.776;9.124;2023-11-21T07:26:32;13.75;;;5.65;;
55913;SDS011;58179;48.776;9.124;2023-11-21T07:28:59;10.07;;;5.57;;
55913;SDS011;58179;48.776;9.124;2023-11-21T07:31:27;14.60;;;6.38;;
55913;SDS011;58179;48.776;9.124;2023-11-21T07:33:54;15.45;;;6.28;;
55913;SDS011;58179;48.776;9.124;2023-11-21T07:36:23;11.93;;;5.68;;
55913;SDS011;58179;48.776;9.124;2023-11-21T07:38:50;13.20;;;6.07;;
55913;SDS011;58179;48.776;9.124;2023-11-21T07:41:16;11.45;;;5.28;;
55913;SDS011;58179;48.776;9.124;2023-11-21T07:43:43;11.57;;;5.65;;
55913;SDS011;58179;48.776;9.124;2023-11-21T07:46:10;12.27;;;5.32;;
55913;SDS011;58179;48.776;9.124;2023-11-21T07:48:41;9.05;;;4.65;;
55913;SDS011;58179;48.776;9.124;2023-11-21T07:51:08;14.85;;;5.70;;
55913;SDS011;58179;48.776;9.124;2023-11-21T07:53:35;9.10;;;4.40;;
55913;SDS011;58179;48.776;9.124;2023-11-21T07:56:02;13.80;;;4.90;;
55913;SDS011;58179;48.776;9.124;2023-11-21T07:58:29;16.35;;;5.57;;
55913;SDS011;58179;48.776;9.124;2023-11-21T08:00:55;11.07;;;4.72;;
55913;SDS011;58179;48.776;9.124;2023-11-21T08:03:22;7.68;;;3.90;;
55913;SDS011;58179;48.776;9.124;2023-11-21T08:05:49;8.73;;;4.00;;
55913;SDS011;58179;48.776;9.124;2023-11-21T08:08:15;7.13;;;3.72;;
55913;SDS011;58179;48.776;9.124;2023-11-21T08:10:43;5.97;;;3.53;;
55913;SDS011;58179;48.776;9.124;2023-11-21T08:13:19;10.02;;;4.35;;
55913;SDS011;58179;48.776;9.124;2023-11-21T08:15:45;7.75;;;3.80;;
55913;SDS011;58179;48.776;9.124;2023-11-21T08:18:12;8.57;;;4.00;;
55913;SDS011;58179;48.776;9.124;2023-11-21T08:20:39;12.43;;;4.20;;
55913;SDS011;58179;48.776;9.124;2023-11-21T08:23:07;10.93;;;4.22;;
55913;SDS011;58179;48.776;9.124;2023-11-21T08:25:33;7.00;;;3.83;;
55913;SDS011;58179;48.776;9.124;2023-11-21T08:27:59;6.70;;;3.75;;
55913;SDS011;58179;48.776;9.124;2023-11-21T08:30:26;4.82;;;3.17;;
55913;SDS011;58179;48.776;9.124;2023-11-21T08:32:55;10.50;;;4.07;;
55913;SDS011;58179;48.776;9.124;2023-11-21T08:35:23;7.43;;;4.30;;
55913;SDS011;58179;48.776;9.124;2023-11-21T08:37:50;6.90;;;3.60;;
55913;SDS011;58179;48.776;9.124;2023-11-21T08:40:19;8.25;;;4.20;;
55913;SDS011;58179;48.776;9.124;2023-11-21T08:42:46;7.70;;;3.60;;
55913;SDS011;58179;48.776;9.124;2023-11-21T08:45:13;6.15;;;3.30;;
55913;SDS011;58179;48.776;9.124;2023-11-21T08:47:39;5.35;;;3.17;;
55913;SDS011;58179;48.776;9.124;2023-11-21T08:50:06;11.55;;;4.45;;
55913;SDS011;58179;48.776;9.124;2023-11-21T08:52:33;10.37;;;3.83;;
55913;SDS011;58179;48.776;9.124;2023-11-21T08:54:59;11.57;;;3.88;;
55913;SDS011;58179;48.776;9.124;2023-11-21T08:57:34;8.30;;;3.80;;
55913;SDS011;58179;48.776;9.124;2023-11-21T09:00:00;5.50;;;3.20;;
55913;SDS011;58179;48.776;9.124;2023-11-21T09:02:26;4.00;;;2.73;;
55913;SDS011;58179;48.776;9.124;2023-11-21T09:04:52;5.60;;;2.40;;
55913;SDS011;58179;48.776;9.124;2023-11-21T09:07:18;5.47;;;2.70;;
55913;SDS011;58179;48.776;9.124;2023-11-21T09:09:47;7.28;;;2.55;;
55913;SDS011;58179;48.776;9.124;2023-11-21T09:12:14;3.00;;;2.25;;
55913;SDS011;58179;48.776;9.124;2023-11-21T09:14:42;3.25;;;2.10;;
55913;SDS011;58179;48.776;9.124;2023-11-21T09:17:09;4.30;;;2.72;;
55913;SDS011;58179;48.776;9.124;2023-11-21T09:19:39;7.20;;;3.08;;
55913;SDS011;58179;48.776;9.124;2023-11-21T09:22:06;4.22;;;2.55;;
55913;SDS011;58179;48.776;9.124;2023-11-21T09:24:32;2.60;;;2.08;;
55913;SDS011;58179;48.776;9.124;2023-11-21T09:26:58;2.13;;;1.80;;
55913;SDS011;58179;48.776;9.124;2023-11-21T09:29:25;2.45;;;1.80;;
55913;SDS011;58179;48.776;9.124;2023-11-21T09:31:52;1.43;;;1.33;;
55913;SDS011;58179;48.776;9.124;2023-11-21T09:34:19;1.40;;;1.30;;
55913;SDS011;58179;48.776;9.124;2023-11-21T09:36:46;1.40;;;1.30;;
55913;SDS011;58179;48.776;9.124;2023-11-21T09:39:12;1.50;;;1.20;;
55913;SDS011;58179;48.776;9.124;2023-11-21T09:41:43;2.20;;;1.15;;
55913;SDS011;58179;48.776;9.124;2023-11-21T09:44:12;3.37;;;1.50;;
55913;SDS011;58179;48.776;9.124;2023-11-21T09:46:42;1.48;;;1.38;;
55913;SDS011;58179;48.776;9.124;2023-11-21T09:49:11;2.17;;;1.45;;
55913;SDS011;58179;48.776;9.124;2023-11-21T09:51:38;1.40;;;1.30;;
55913;SDS011;58179;48.776;9.124;2023-11-21T09:54:07;2.05;;;1.67;;
55913;SDS011;58179;48.776;9.124;2023-11-21T09:56:35;2.47;;;1.60;;
55913;SDS011;58179;48.776;9.124;2023-11-21T09:59:02;1.90;;;1.70;;
55913;SDS011;58179;48.776;9.124;2023-11-21T10:01:33;2.30;;;1.80;;
55913;SDS011;58179;48.776;9.124;2023-11-21T10:04:01;2.25;;;1.98;;
55913;SDS011;58179;48.776;9.124;2023-11-21T10:06:28;1.73;;;1.58;;
55913;SDS011;58179;48.776;9.124;2023-11-21T10:08:56;3.30;;;1.90;;
55913;SDS011;58179;48.776;9.124;2023-11-21T10:11:24;1.50;;;1.40;;
55913;SDS011;58179;48.776;9.124;2023-11-21T10:13:52;1.60;;;1.50;;
55913;SDS011;58179;48.776;9.124;2023-11-21T10:16:19;1.40;;;1.30;;
55913;SDS011;58179;48.776;9.124;2023-11-21T10:18:47;1.50;;;1.40;;
55913;SDS011;58179;48.776;9.124;2023-11-21T10:21:17;1.20;;;1.10;;
55913;SDS011;58179;48.776;9.124;2023-11-21T10:23:45;1.10;;;1.10;;
55913;SDS011;58179;48.776;9.124;2023-11-21T10:26:11;1.40;;;1.30;;
55913;SDS011;58179;48.776;9.124;2023-11-21T10:28:41;1.35;;;1.25;;
55913;SDS011;58179;48.776;9.124;2023-11-21T10:31:20;2.45;;;1.40;;
55913;SDS011;58179;48.776;9.124;2023-11-21T10:33:46;3.42;;;1.42;;
55913;SDS011;58179;48.776;9.124;2023-11-21T10:36:12;2.05;;;1.38;;
55913;SDS011;58179;48.776;9.124;2023-11-21T10:38:50;2.92;;;1.60;;
55913;SDS011;58179;48.776;9.124;2023-11-21T10:41:18;3.63;;;1.70;;
55913;SDS011;58179;48.776;9.124;2023-11-21T10:43:45;1.80;;;1.60;;
55913;SDS011;58179;48.776;9.124;2023-11-21T10:46:11;1.52;;;1.42;;
55913;SDS011;58179;48.776;9.124;2023-11-21T10:48:38;1.48;;;1.38;;
55913;SDS011;58179;48.776;9.124;2023-11-21T10:51:07;2.67;;;1.45;;
55913;SDS011;58179;48.776;9.124;2023-11-21T10:53:36;1.90;;;1.30;;
55913;SDS011;58179;48.776;9.124;2023-11-21T10:56:08;1.40;;;1.30;;
55913;SDS011;58179;48.776;9.124;2023-11-21T10:58:42;1.90;;;1.23;;
55913;SDS011;58179;48.776;9.124;2023-11-21T11:01:09;1.45;;;1.20;;
55913;SDS011;58179;48.776;9.124;2023-11-21T11:03:37;1.67;;;1.40;;
55913;SDS011;58179;48.776;9.124;2023-11-21T11:06:04;2.20;;;1.25;;
55913;SDS011;58179;48.776;9.124;2023-11-21T11:08:36;1.50;;;1.40;;
55913;SDS011;58179;48.776;9.124;2023-11-21T11:11:03;1.60;;;1.50;;
55913;SDS011;58179;48.776;9.124;2023-11-21T11:13:31;1.60;;;1.30;;
55913;SDS011;58179;48.776;9.124;2023-11-21T11:15:58;1.30;;;1.20;;
55913;SDS011;58179;48.776;9.124;2023-11-21T11:18:28;3.40;;;1.50;;
55913;SDS011;58179;48.776;9.124;2023-11-21T11:20:55;1.10;;;1.10;;
55913;SDS011;58179;48.776;9.124;2023-11-21T11:23:31;1.23;;;1.13;;
55913;SDS011;58179;48.776;9.124;2023-11-21T11:26:12;1.15;;;1.08;;
55913;SDS011;58179;48.776;9.124;2023-11-21T11:28:54;2.10;;;1.20;;
55913;SDS011;58179;48.776;9.124;2023-11-21T11:31:36;2.13;;;1.17;;
55913;SDS011;58179;48.776;9.124;2023-11-21T11:34:08;1.20;;;1.10;;
55913;SDS011;58179;48.776;9.124;2023-11-21T11:36:44;1.00;;;1.00;;
55913;SDS011;58179;48.776;9.124;2023-11-21T11:39:26;1.00;;;1.00;;
55913;SDS011;58179;48.776;9.124;2023-11-21T11:41:55;1.20;;;1.10;;
55913;SDS011;58179;48.776;9.124;2023-11-21T11:47:19;1.70;;;1.60;;
55913;SDS011;58179;48.776;9.124;2023-11-21T11:49:54;1.40;;;1.30;;
55913;SDS011;58179;48.776;9.124;2023-11-21T11:52:39;1.50;;;1.40;;
55913;SDS011;58179;48.776;9.124;2023-11-21T11:55:06;1.30;;;1.20;;
55913;SDS011;58179;48.776;9.124;2023-11-21T11:57:37;1.37;;;1.27;;
55913;SDS011;58179;48.776;9.124;2023-11-21T12:00:09;1.20;;;1.10;;
55913;SDS011;58179;48.776;9.124;2023-11-21T12:02:41;1.30;;;1.10;;
55913;SDS011;58179;48.776;9.124;2023-11-21T12:05:09;1.33;;;1.23;;
55913;SDS011;58179;48.776;9.124;2023-11-21T12:07:42;1.42;;;1.33;;
55913;SDS011;58179;48.776;9.124;2023-11-21T12:10:11;1.40;;;1.30;;
55913;SDS011;58179;48.776;9.124;2023-11-21T12:12:41;1.30;;;1.20;;
55913;SDS011;58179;48.776;9.124;2023-11-21T12:15:13;1.40;;;1.30;;
55913;SDS011;58179;48.776;9.124;2023-11-21T12:17:42;1.50;;;1.40;;
55913;SDS011;58179;48.776;9.124;2023-11-21T12:20:09;1.40;;;1.30;;
55913;SDS011;58179;48.776;9.124;2023-11-21T12:22:42;1.20;;;1.15;;
55913;SDS011;58179;48.776;9.124;2023-11-21T12:25:12;1.40;;;1.30;;
55913;SDS011;58179;48.776;9.124;2023-11-21T12:27:41;1.48;;;1.38;;
55913;SDS011;58179;48.776;9.124;2023-11-21T12:30:09;2.05;;;1.30;;
55913;SDS011;58179;48.776;9.124;2023-11-21T12:32:40;1.60;;;1.50;;
55913;SDS011;58179;48.776;9.124;2023-11-21T12:35:07;1.88;;;1.58;;
55913;SDS011;58179;48.776;9.124;2023-11-21T12:37:35;1.63;;;1.40;;
55913;SDS011;58179;48.776;9.124;2023-11-21T12:40:03;1.60;;;1.30;;
55913;SDS011;58179;48.776;9.124;2023-11-21T12:42:30;1.60;;;1.50;;
55913;SDS011;58179;48.776;9.124;2023-11-21T12:45:10;1.95;;;1.60;;
55913;SDS011;58179;48.776;9.124;2023-11-21T12:47:49;2.40;;;1.65;;
55913;SDS011;58179;48.776;9.124;2023-11-21T12:50:18;1.50;;;1.40;;
55913;SDS011;58179;48.776;9.124;2023-11-21T12:52:48;1.88;;;1.70;;
55913;SDS011;58179;48.776;9.124;2023-11-21T12:55:16;1.40;;;1.30;;
55913;SDS011;58179;48.776;9.124;2023-11-21T12:57:45;1.50;;;1.40;;
55913;SDS011;58179;48.776;9.124;2023-11-21T13:00:15;1.58;;;1.48;;
55913;SDS011;58179;48.776;9.124;2023-11-21T13:02:54;1.55;;;1.45;;
55913;SDS011;58179;48.776;9.124;2023-11-21T13:05:24;2.53;;;2.00;;
55913;SDS011;58179;48.776;9.124;2023-11-21T13:07:51;3.90;;;2.83;;
55913;SDS011;58179;48.776;9.124;2023-11-21T13:10:19;2.90;;;2.40;;
55913;SDS011;58179;48.776;9.124;2023-11-21T13:12:52;3.30;;;2.10;;
55913;SDS011;58179;48.776;9.124;2023-11-21T13:15:20;2.50;;;2.30;;
55913;SDS011;58179;48.776;9.124;2023-11-21T13:17:46;2.90;;;2.20;;
55913;SDS011;58179;48.776;9.124;2023-11-21T13:20:14;5.10;;;3.00;;
55913;SDS011;58179;48.776;9.124;2023-11-21T13:22:46;3.08;;;2.20;;
55913;SDS011;58179;48.776;9.124;2023-11-21T13:25:14;2.55;;;2.03;;
55913;SDS011;58179;48.776;9.124;2023-11-21T13:27:42;2.57;;;1.80;;
55913;SDS011;58179;48.776;9.124;2023-11-21T13:30:09;1.92;;;1.70;;
55913;SDS011;58179;48.776;9.124;2023-11-21T13:32:40;2.63;;;1.50;;
55913;SDS011;58179;48.776;9.124;2023-11-21T13:35:07;1.60;;;1.50;;
55913;SDS011;58179;48.776;9.124;2023-11-21T13:37:40;1.40;;;1.30;;
55913;SDS011;58179;48.776;9.124;2023-11-21T13:40:07;1.50;;;1.40;;
55913;SDS011;58179;48.776;9.124;2023-11-21T13:42:39;1.42;;;1.30;;
55913;SDS011;58179;48.776;9.124;2023-11-21T13:45:06;1.80;;;1.33;;
55913;SDS011;58179;48.776;9.124;2023-11-21T13:47:33;1.50;;;1.30;;
55913;SDS011;58179;48.776;9.124;2023-11-21T13:50:01;1.48;;;1.38;;
55913;SDS011;58179;48.776;9.124;2023-11-21T13:52:28;2.13;;;1.50;;
55913;SDS011;58179;48.776;9.124;2023-11-21T13:54:59;1.60;;;1.40;;
55913;SDS011;58179;48.776;9.124;2023-11-21T13:57:31;1.67;;;1.40;;
55913;SDS011;58179;48.776;9.124;2023-11-21T13:59:58;3.22;;;1.73;;
55913;SDS011;58179;48.776;9.124;2023-11-21T14:02:26;3.10;;;1.70;;
55913;SDS011;58179;48.776;9.124;2023-11-21T14:04:59;2.90;;;1.52;;
55913;SDS011;58179;48.776;9.124;2023-11-21T14:07:33;1.88;;;1.50;;
55913;SDS011;58179;48.776;9.124;2023-11-21T14:10:04;2.70;;;2.00;;
55913;SDS011;58179;48.776;9.124;2023-11-21T14:12:39;1.77;;;1.67;;
55913;SDS011;58179;48.776;9.124;2023-11-21T14:15:08;2.17;;;1.90;;
55913;SDS011;58179;48.776;9.124;2023-11-21T14:17:36;4.38;;;2.33;;
55913;SDS011;58179;48.776;9.124;2023-11-21T14:20:05;3.85;;;2.60;;
55913;SDS011;58179;48.776;9.124;2023-11-21T14:22:39;6.05;;;3.58;;
55913;SDS011;58179;48.776;9.124;2023-11-21T14:25:07;6.30;;;3.78;;
55913;SDS011;58179;48.776;9.124;2023-11-21T14:27:34;6.28;;;3.63;;
55913;SDS011;58179;48.776;9.124;2023-11-21T14:30:00;8.30;;;4.00;;
55913;SDS011;58179;48.776;9.124;2023-11-21T14:32:26;6.18;;;3.95;;
55913;SDS011;58179;48.776;9.124;2023-11-21T14:34:53;7.40;;;3.90;;
55913;SDS011;58179;48.776;9.124;2023-11-21T14:37:19;9.17;;;4.37;;
55913;SDS011;58179;48.776;9.124;2023-11-21T14:39:45;8.75;;;3.78;;
55913;SDS011;58179;48.776;9.124;2023-11-21T14:42:16;7.35;;;3.78;;
55913;SDS011;58179;48.776;9.124;2023-11-21T14:44:49;7.07;;;3.50;;
55913;SDS011;58179;48.776;9.124;2023-11-21T14:47:16;7.07;;;3.30;;
55913;SDS011;58179;48.776;9.124;2023-11-21T14:49:50;6.93;;;3.58;;
55913;SDS011;58179;48.776;9.124;2023-11-21T14:52:19;6.88;;;3.47;;